Lima Duarte, Brazil
Current Conditions -  °F | °C
As of 8:00 PM on Friday 19 Dec 2014 (Local Time) from SBBQ Reporting Station
Thunderstorm Thunderstorm  
Wind Chill: 68°   Ceiling: 7000
Heat Index: 68°   Visibility: 6mi
Dew Point: 64°   Wind: 1mph
Humidity: 88%   Direction: 90°E
Pressure: NA   Gusts: NA
Location:  21.84°S, 43.79°W
Report Text: SBBQ 192200Z 09001KT 9999 -TSRA FEW035CB BKN070 OVC100 20/18 Q1016 RERA
Loading
Personal Weather Stations






























Interactive Weather Map New forecast layout! Learn more

10-Day Weather Forecast

Advertisements
Track Severe Weather on mobile